sensor_id;sensor_type;location;lat;lon;timestamp;P1;durP1;ratioP1;P2;durP2;ratioP2
54849;SDS011;47660;51.334;12.396;2023-05-07T00:02:02;8.88;;;4.43;;
54849;SDS011;47660;51.334;12.396;2023-05-07T00:04:29;7.82;;;4.07;;
54849;SDS011;47660;51.334;12.396;2023-05-07T00:07:01;7.18;;;4.13;;
54849;SDS011;47660;51.334;12.396;2023-05-07T00:09:29;7.18;;;3.70;;
54849;SDS011;47660;51.334;12.396;2023-05-07T00:11:55;7.95;;;4.10;;
54849;SDS011;47660;51.334;12.396;2023-05-07T00:14:20;6.90;;;3.83;;
54849;SDS011;47660;51.334;12.396;2023-05-07T00:16:46;7.78;;;3.28;;
54849;SDS011;47660;51.334;12.396;2023-05-07T00:19:14;8.43;;;3.97;;
54849;SDS011;47660;51.334;12.396;2023-05-07T00:21:40;7.03;;;3.50;;
54849;SDS011;47660;51.334;12.396;2023-05-07T00:24:07;6.95;;;3.47;;
54849;SDS011;47660;51.334;12.396;2023-05-07T00:26:35;6.38;;;3.17;;
54849;SDS011;47660;51.334;12.396;2023-05-07T00:29:00;7.30;;;3.85;;
54849;SDS011;47660;51.334;12.396;2023-05-07T00:31:28;7.32;;;3.47;;
54849;SDS011;47660;51.334;12.396;2023-05-07T00:33:53;8.13;;;3.55;;
54849;SDS011;47660;51.334;12.396;2023-05-07T00:36:21;5.97;;;3.65;;
54849;SDS011;47660;51.334;12.396;2023-05-07T00:38:50;7.60;;;3.88;;
54849;SDS011;47660;51.334;12.396;2023-05-07T00:41:19;9.20;;;4.25;;
54849;SDS011;47660;51.334;12.396;2023-05-07T00:43:49;8.25;;;4.03;;
54849;SDS011;47660;51.334;12.396;2023-05-07T00:46:17;7.13;;;3.83;;
54849;SDS011;47660;51.334;12.396;2023-05-07T00:48:44;7.88;;;3.95;;
54849;SDS011;47660;51.334;12.396;2023-05-07T00:51:10;8.27;;;4.07;;
54849;SDS011;47660;51.334;12.396;2023-05-07T00:53:39;7.00;;;3.78;;
54849;SDS011;47660;51.334;12.396;2023-05-07T00:56:04;9.07;;;4.07;;
54849;SDS011;47660;51.334;12.396;2023-05-07T00:58:31;6.32;;;3.78;;
54849;SDS011;47660;51.334;12.396;2023-05-07T01:00:57;8.27;;;4.35;;
54849;SDS011;47660;51.334;12.396;2023-05-07T01:03:23;7.07;;;3.90;;
54849;SDS011;47660;51.334;12.396;2023-05-07T01:05:51;9.95;;;4.45;;
54849;SDS011;47660;51.334;12.396;2023-05-07T01:08:19;7.05;;;4.07;;
54849;SDS011;47660;51.334;12.396;2023-05-07T01:10:45;9.27;;;4.78;;
54849;SDS011;47660;51.334;12.396;2023-05-07T01:13:12;9.63;;;4.32;;
54849;SDS011;47660;51.334;12.396;2023-05-07T01:15:39;8.05;;;4.47;;
54849;SDS011;47660;51.334;12.396;2023-05-07T01:18:09;13.15;;;4.57;;
54849;SDS011;47660;51.334;12.396;2023-05-07T01:20:35;9.18;;;4.13;;
54849;SDS011;47660;51.334;12.396;2023-05-07T01:23:02;10.60;;;4.72;;
54849;SDS011;47660;51.334;12.396;2023-05-07T01:25:31;8.45;;;4.60;;
54849;SDS011;47660;51.334;12.396;2023-05-07T01:27:58;9.60;;;4.13;;
54849;SDS011;47660;51.334;12.396;2023-05-07T01:30:30;8.13;;;4.40;;
54849;SDS011;47660;51.334;12.396;2023-05-07T01:33:02;12.52;;;5.25;;
54849;SDS011;47660;51.334;12.396;2023-05-07T01:35:37;8.35;;;4.90;;
54849;SDS011;47660;51.334;12.396;2023-05-07T01:38:06;9.38;;;4.60;;
54849;SDS011;47660;51.334;12.396;2023-05-07T01:40:33;10.85;;;5.07;;
54849;SDS011;47660;51.334;12.396;2023-05-07T01:43:02;8.95;;;4.45;;
54849;SDS011;47660;51.334;12.396;2023-05-07T01:45:28;9.13;;;5.25;;
54849;SDS011;47660;51.334;12.396;2023-05-07T01:47:55;13.60;;;5.50;;
54849;SDS011;47660;51.334;12.396;2023-05-07T01:50:21;10.70;;;4.85;;
54849;SDS011;47660;51.334;12.396;2023-05-07T01:52:47;9.45;;;4.63;;
54849;SDS011;47660;51.334;12.396;2023-05-07T01:55:14;9.95;;;5.35;;
54849;SDS011;47660;51.334;12.396;2023-05-07T01:57:40;10.55;;;5.35;;
54849;SDS011;47660;51.334;12.396;2023-05-07T02:00:06;13.10;;;6.32;;
54849;SDS011;47660;51.334;12.396;2023-05-07T02:02:35;13.48;;;5.90;;
54849;SDS011;47660;51.334;12.396;2023-05-07T02:05:01;11.82;;;6.13;;
54849;SDS011;47660;51.334;12.396;2023-05-07T02:07:32;12.73;;;6.25;;
54849;SDS011;47660;51.334;12.396;2023-05-07T02:09:58;12.00;;;6.00;;
54849;SDS011;47660;51.334;12.396;2023-05-07T02:12:23;17.60;;;6.30;;
54849;SDS011;47660;51.334;12.396;2023-05-07T02:14:49;13.50;;;6.28;;
54849;SDS011;47660;51.334;12.396;2023-05-07T02:17:14;13.05;;;5.85;;
54849;SDS011;47660;51.334;12.396;2023-05-07T02:19:40;10.93;;;5.85;;
54849;SDS011;47660;51.334;12.396;2023-05-07T02:22:09;13.13;;;6.45;;
54849;SDS011;47660;51.334;12.396;2023-05-07T02:24:34;11.57;;;5.70;;
54849;SDS011;47660;51.334;12.396;2023-05-07T02:27:02;15.10;;;6.05;;
54849;SDS011;47660;51.334;12.396;2023-05-07T02:29:30;12.05;;;5.68;;
54849;SDS011;47660;51.334;12.396;2023-05-07T02:31:55;11.65;;;5.93;;
54849;SDS011;47660;51.334;12.396;2023-05-07T02:34:21;10.48;;;6.13;;
54849;SDS011;47660;51.334;12.396;2023-05-07T02:36:46;12.68;;;5.95;;
54849;SDS011;47660;51.334;12.396;2023-05-07T02:39:12;10.43;;;5.20;;
54849;SDS011;47660;51.334;12.396;2023-05-07T02:41:38;18.95;;;6.43;;
54849;SDS011;47660;51.334;12.396;2023-05-07T02:44:04;13.02;;;6.25;;
54849;SDS011;47660;51.334;12.396;2023-05-07T02:46:30;9.40;;;5.03;;
54849;SDS011;47660;51.334;12.396;2023-05-07T02:48:55;13.65;;;6.05;;
54849;SDS011;47660;51.334;12.396;2023-05-07T02:51:21;15.20;;;6.70;;
54849;SDS011;47660;51.334;12.396;2023-05-07T02:53:47;12.23;;;5.70;;
54849;SDS011;47660;51.334;12.396;2023-05-07T02:56:13;12.38;;;5.72;;
54849;SDS011;47660;51.334;12.396;2023-05-07T02:58:41;10.73;;;5.80;;
54849;SDS011;47660;51.334;12.396;2023-05-07T03:01:11;11.30;;;5.70;;
54849;SDS011;47660;51.334;12.396;2023-05-07T03:03:39;12.45;;;6.15;;
54849;SDS011;47660;51.334;12.396;2023-05-07T03:06:05;12.77;;;5.57;;
54849;SDS011;47660;51.334;12.396;2023-05-07T03:08:33;9.45;;;5.65;;
54849;SDS011;47660;51.334;12.396;2023-05-07T03:10:58;13.18;;;5.90;;
54849;SDS011;47660;51.334;12.396;2023-05-07T03:13:24;11.18;;;5.90;;
54849;SDS011;47660;51.334;12.396;2023-05-07T03:15:52;16.67;;;6.43;;
54849;SDS011;47660;51.334;12.396;2023-05-07T03:18:17;9.80;;;5.68;;
54849;SDS011;47660;51.334;12.396;2023-05-07T03:20:42;11.38;;;5.75;;
54849;SDS011;47660;51.334;12.396;2023-05-07T03:23:12;11.18;;;5.20;;
54849;SDS011;47660;51.334;12.396;2023-05-07T03:25:38;11.43;;;5.63;;
54849;SDS011;47660;51.334;12.396;2023-05-07T03:28:03;12.02;;;5.85;;
54849;SDS011;47660;51.334;12.396;2023-05-07T03:30:31;9.38;;;5.43;;
54849;SDS011;47660;51.334;12.396;2023-05-07T03:32:57;11.18;;;6.03;;
54849;SDS011;47660;51.334;12.396;2023-05-07T03:35:22;11.30;;;5.90;;
54849;SDS011;47660;51.334;12.396;2023-05-07T03:37:50;11.32;;;6.28;;
54849;SDS011;47660;51.334;12.396;2023-05-07T03:40:15;9.73;;;5.05;;
54849;SDS011;47660;51.334;12.396;2023-05-07T03:42:41;9.77;;;5.80;;
54849;SDS011;47660;51.334;12.396;2023-05-07T03:45:06;12.18;;;5.80;;
54849;SDS011;47660;51.334;12.396;2023-05-07T03:47:32;10.18;;;5.47;;
54849;SDS011;47660;51.334;12.396;2023-05-07T03:50:00;12.63;;;5.63;;
54849;SDS011;47660;51.334;12.396;2023-05-07T03:52:26;11.73;;;5.78;;
54849;SDS011;47660;51.334;12.396;2023-05-07T03:54:54;15.02;;;5.97;;
54849;SDS011;47660;51.334;12.396;2023-05-07T03:57:20;10.32;;;5.57;;
54849;SDS011;47660;51.334;12.396;2023-05-07T03:59:45;11.27;;;5.28;;
54849;SDS011;47660;51.334;12.396;2023-05-07T04:02:11;8.85;;;5.13;;
54849;SDS011;47660;51.334;12.396;2023-05-07T04:04:36;10.18;;;5.20;;
54849;SDS011;47660;51.334;12.396;2023-05-07T04:07:04;9.05;;;5.10;;
54849;SDS011;47660;51.334;12.396;2023-05-07T04:09:32;12.35;;;5.82;;
54849;SDS011;47660;51.334;12.396;2023-05-07T04:12:00;13.85;;;5.90;;
54849;SDS011;47660;51.334;12.396;2023-05-07T04:14:28;9.18;;;5.88;;
54849;SDS011;47660;51.334;12.396;2023-05-07T04:16:55;10.27;;;5.57;;
54849;SDS011;47660;51.334;12.396;2023-05-07T04:19:20;12.18;;;5.03;;
54849;SDS011;47660;51.334;12.396;2023-05-07T04:21:46;11.32;;;5.78;;
54849;SDS011;47660;51.334;12.396;2023-05-07T04:24:13;10.88;;;5.40;;
54849;SDS011;47660;51.334;12.396;2023-05-07T04:26:39;13.00;;;6.03;;
54849;SDS011;47660;51.334;12.396;2023-05-07T04:29:05;10.48;;;5.85;;
54849;SDS011;47660;51.334;12.396;2023-05-07T04:31:30;10.57;;;5.57;;
54849;SDS011;47660;51.334;12.396;2023-05-07T04:34:00;9.27;;;5.20;;
54849;SDS011;47660;51.334;12.396;2023-05-07T04:36:26;9.98;;;5.78;;
54849;SDS011;47660;51.334;12.396;2023-05-07T04:38:54;12.02;;;5.90;;
54849;SDS011;47660;51.334;12.396;2023-05-07T04:41:20;12.50;;;6.45;;
54849;SDS011;47660;51.334;12.396;2023-05-07T04:43:45;9.32;;;5.28;;
54849;SDS011;47660;51.334;12.396;2023-05-07T04:46:11;14.63;;;6.03;;
54849;SDS011;47660;51.334;12.396;2023-05-07T04:48:39;11.15;;;4.85;;
54849;SDS011;47660;51.334;12.396;2023-05-07T04:51:09;9.70;;;5.40;;
54849;SDS011;47660;51.334;12.396;2023-05-07T04:53:34;10.18;;;5.53;;
54849;SDS011;47660;51.334;12.396;2023-05-07T04:56:00;10.43;;;5.40;;
54849;SDS011;47660;51.334;12.396;2023-05-07T04:58:25;10.02;;;5.55;;
54849;SDS011;47660;51.334;12.396;2023-05-07T05:00:50;12.35;;;4.80;;
54849;SDS011;47660;51.334;12.396;2023-05-07T05:03:16;10.68;;;5.35;;
54849;SDS011;47660;51.334;12.396;2023-05-07T05:05:42;9.95;;;5.35;;
54849;SDS011;47660;51.334;12.396;2023-05-07T05:08:10;11.73;;;5.15;;
54849;SDS011;47660;51.334;12.396;2023-05-07T05:10:35;10.02;;;4.50;;
54849;SDS011;47660;51.334;12.396;2023-05-07T05:13:00;8.82;;;5.20;;
54849;SDS011;47660;51.334;12.396;2023-05-07T05:15:26;9.40;;;5.07;;
54849;SDS011;47660;51.334;12.396;2023-05-07T05:17:56;9.65;;;5.45;;
54849;SDS011;47660;51.334;12.396;2023-05-07T05:20:21;11.35;;;4.97;;
54849;SDS011;47660;51.334;12.396;2023-05-07T05:22:49;8.07;;;4.75;;
54849;SDS011;47660;51.334;12.396;2023-05-07T05:25:14;10.20;;;4.70;;
54849;SDS011;47660;51.334;12.396;2023-05-07T05:27:40;13.15;;;4.38;;
54849;SDS011;47660;51.334;12.396;2023-05-07T05:30:07;7.75;;;4.80;;
54849;SDS011;47660;51.334;12.396;2023-05-07T05:32:36;7.55;;;4.55;;
54849;SDS011;47660;51.334;12.396;2023-05-07T05:35:01;7.20;;;3.90;;
54849;SDS011;47660;51.334;12.396;2023-05-07T05:37:27;9.98;;;4.32;;
54849;SDS011;47660;51.334;12.396;2023-05-07T05:39:52;7.20;;;4.05;;
54849;SDS011;47660;51.334;12.396;2023-05-07T05:42:19;6.93;;;3.70;;
54849;SDS011;47660;51.334;12.396;2023-05-07T05:44:45;7.93;;;3.90;;
54849;SDS011;47660;51.334;12.396;2023-05-07T05:47:10;6.32;;;3.40;;
54849;SDS011;47660;51.334;12.396;2023-05-07T05:49:36;10.75;;;3.95;;
54849;SDS011;47660;51.334;12.396;2023-05-07T05:52:01;8.00;;;4.15;;
54849;SDS011;47660;51.334;12.396;2023-05-07T05:54:29;9.38;;;4.25;;
54849;SDS011;47660;51.334;12.396;2023-05-07T05:56:54;7.00;;;4.20;;
54849;SDS011;47660;51.334;12.396;2023-05-07T05:59:20;7.45;;;4.07;;
54849;SDS011;47660;51.334;12.396;2023-05-07T06:01:46;8.88;;;4.50;;
54849;SDS011;47660;51.334;12.396;2023-05-07T06:04:14;7.35;;;4.45;;
54849;SDS011;47660;51.334;12.396;2023-05-07T06:06:40;8.05;;;4.13;;
54849;SDS011;47660;51.334;12.396;2023-05-07T06:09:05;7.40;;;4.43;;
54849;SDS011;47660;51.334;12.396;2023-05-07T06:11:31;9.13;;;4.55;;
54849;SDS011;47660;51.334;12.396;2023-05-07T06:13:57;8.68;;;4.72;;
54849;SDS011;47660;51.334;12.396;2023-05-07T06:16:22;10.65;;;4.45;;
54849;SDS011;47660;51.334;12.396;2023-05-07T06:18:49;8.80;;;5.03;;
54849;SDS011;47660;51.334;12.396;2023-05-07T06:21:14;8.55;;;4.68;;
54849;SDS011;47660;51.334;12.396;2023-05-07T06:23:40;7.65;;;4.75;;
54849;SDS011;47660;51.334;12.396;2023-05-07T06:26:07;6.38;;;4.18;;
54849;SDS011;47660;51.334;12.396;2023-05-07T06:28:33;7.13;;;4.75;;
54849;SDS011;47660;51.334;12.396;2023-05-07T06:31:18;9.30;;;4.95;;
54849;SDS011;47660;51.334;12.396;2023-05-07T06:33:45;10.93;;;4.45;;
54849;SDS011;47660;51.334;12.396;2023-05-07T06:36:11;9.70;;;5.32;;
54849;SDS011;47660;51.334;12.396;2023-05-07T06:38:36;6.78;;;4.30;;
54849;SDS011;47660;51.334;12.396;2023-05-07T06:41:01;11.00;;;5.38;;
54849;SDS011;47660;51.334;12.396;2023-05-07T06:43:27;8.55;;;4.47;;
54849;SDS011;47660;51.334;12.396;2023-05-07T06:45:54;8.82;;;5.22;;
54849;SDS011;47660;51.334;12.396;2023-05-07T06:48:20;11.20;;;5.57;;
54849;SDS011;47660;51.334;12.396;2023-05-07T06:50:45;9.55;;;4.95;;
54849;SDS011;47660;51.334;12.396;2023-05-07T06:53:11;7.80;;;4.53;;
54849;SDS011;47660;51.334;12.396;2023-05-07T06:55:38;10.40;;;4.85;;
54849;SDS011;47660;51.334;12.396;2023-05-07T06:58:04;6.82;;;3.97;;
54849;SDS011;47660;51.334;12.396;2023-05-07T07:00:30;9.18;;;4.55;;
54849;SDS011;47660;51.334;12.396;2023-05-07T07:02:56;7.80;;;4.60;;
54849;SDS011;47660;51.334;12.396;2023-05-07T07:05:25;9.15;;;4.07;;
54849;SDS011;47660;51.334;12.396;2023-05-07T07:07:50;7.15;;;4.07;;
54849;SDS011;47660;51.334;12.396;2023-05-07T07:10:21;8.27;;;4.43;;
54849;SDS011;47660;51.334;12.396;2023-05-07T07:12:47;7.03;;;4.10;;
54849;SDS011;47660;51.334;12.396;2023-05-07T07:15:13;9.48;;;4.43;;
54849;SDS011;47660;51.334;12.396;2023-05-07T07:17:39;9.25;;;4.25;;
54849;SDS011;47660;51.334;12.396;2023-05-07T07:20:05;7.68;;;4.30;;
54849;SDS011;47660;51.334;12.396;2023-05-07T07:22:31;8.18;;;4.55;;
54849;SDS011;47660;51.334;12.396;2023-05-07T07:24:59;6.38;;;3.97;;
54849;SDS011;47660;51.334;12.396;2023-05-07T07:27:24;6.78;;;3.50;;
54849;SDS011;47660;51.334;12.396;2023-05-07T07:29:50;5.95;;;3.65;;
54849;SDS011;47660;51.334;12.396;2023-05-07T07:32:15;7.70;;;4.18;;
54849;SDS011;47660;51.334;12.396;2023-05-07T07:34:45;7.32;;;3.85;;
54849;SDS011;47660;51.334;12.396;2023-05-07T07:37:14;4.70;;;3.53;;
54849;SDS011;47660;51.334;12.396;2023-05-07T07:39:39;10.45;;;4.28;;
54849;SDS011;47660;51.334;12.396;2023-05-07T07:42:04;5.05;;;3.53;;
54849;SDS011;47660;51.334;12.396;2023-05-07T07:44:30;6.50;;;4.03;;
54849;SDS011;47660;51.334;12.396;2023-05-07T07:46:55;5.22;;;3.50;;
54849;SDS011;47660;51.334;12.396;2023-05-07T07:49:21;8.48;;;3.70;;
54849;SDS011;47660;51.334;12.396;2023-05-07T07:51:48;7.20;;;3.60;;
54849;SDS011;47660;51.334;12.396;2023-05-07T07:54:14;7.18;;;4.00;;
54849;SDS011;47660;51.334;12.396;2023-05-07T07:56:39;7.63;;;4.10;;
54849;SDS011;47660;51.334;12.396;2023-05-07T07:59:05;5.80;;;3.13;;
54849;SDS011;47660;51.334;12.396;2023-05-07T08:01:33;6.30;;;3.10;;
54849;SDS011;47660;51.334;12.396;2023-05-07T08:03:58;5.97;;;3.72;;
54849;SDS011;47660;51.334;12.396;2023-05-07T08:06:24;4.30;;;2.90;;
54849;SDS011;47660;51.334;12.396;2023-05-07T08:08:52;4.43;;;3.05;;
54849;SDS011;47660;51.334;12.396;2023-05-07T08:11:18;5.03;;;3.20;;
54849;SDS011;47660;51.334;12.396;2023-05-07T08:13:43;5.85;;;3.20;;
54849;SDS011;47660;51.334;12.396;2023-05-07T08:16:11;5.35;;;3.38;;
54849;SDS011;47660;51.334;12.396;2023-05-07T08:18:36;4.28;;;3.10;;
54849;SDS011;47660;51.334;12.396;2023-05-07T08:21:02;6.88;;;2.83;;
54849;SDS011;47660;51.334;12.396;2023-05-07T08:23:27;4.03;;;2.58;;
54849;SDS011;47660;51.334;12.396;2023-05-07T08:25:53;7.65;;;3.15;;
54849;SDS011;47660;51.334;12.396;2023-05-07T08:28:18;4.07;;;2.90;;
54849;SDS011;47660;51.334;12.396;2023-05-07T08:30:45;4.43;;;2.78;;
54849;SDS011;47660;51.334;12.396;2023-05-07T08:33:12;3.67;;;2.53;;
54849;SDS011;47660;51.334;12.396;2023-05-07T08:35:41;4.80;;;3.00;;
54849;SDS011;47660;51.334;12.396;2023-05-07T08:38:06;4.18;;;2.55;;
54849;SDS011;47660;51.334;12.396;2023-05-07T08:40:34;3.28;;;2.47;;
54849;SDS011;47660;51.334;12.396;2023-05-07T08:43:02;4.28;;;3.10;;
54849;SDS011;47660;51.334;12.396;2023-05-07T08:45:33;6.03;;;3.08;;
54849;SDS011;47660;51.334;12.396;2023-05-07T08:48:08;5.60;;;3.40;;
54849;SDS011;47660;51.334;12.396;2023-05-07T08:50:39;5.07;;;3.33;;
54849;SDS011;47660;51.334;12.396;2023-05-07T08:53:04;4.75;;;3.03;;
54849;SDS011;47660;51.334;12.396;2023-05-07T08:55:33;4.40;;;3.00;;
54849;SDS011;47660;51.334;12.396;2023-05-07T08:58:01;6.82;;;3.72;;
54849;SDS011;47660;51.334;12.396;2023-05-07T09:00:29;4.53;;;2.85;;
54849;SDS011;47660;51.334;12.396;2023-05-07T09:02:55;5.40;;;3.40;;
54849;SDS011;47660;51.334;12.396;2023-05-07T09:05:20;6.28;;;3.97;;
54849;SDS011;47660;51.334;12.396;2023-05-07T09:07:46;3.53;;;2.60;;
54849;SDS011;47660;51.334;12.396;2023-05-07T09:10:12;6.20;;;2.80;;
54849;SDS011;47660;51.334;12.396;2023-05-07T09:12:40;5.57;;;3.15;;
54849;SDS011;47660;51.334;12.396;2023-05-07T09:15:06;5.50;;;3.30;;
54849;SDS011;47660;51.334;12.396;2023-05-07T09:17:32;4.90;;;3.08;;
54849;SDS011;47660;51.334;12.396;2023-05-07T09:20:04;6.85;;;3.15;;
54849;SDS011;47660;51.334;12.396;2023-05-07T09:22:35;4.40;;;3.05;;
54849;SDS011;47660;51.334;12.396;2023-05-07T09:25:02;5.13;;;3.08;;
54849;SDS011;47660;51.334;12.396;2023-05-07T09:27:27;8.32;;;3.78;;
54849;SDS011;47660;51.334;12.396;2023-05-07T09:29:53;5.95;;;3.80;;
54849;SDS011;47660;51.334;12.396;2023-05-07T09:32:20;5.75;;;3.45;;
54849;SDS011;47660;51.334;12.396;2023-05-07T09:34:46;5.90;;;3.45;;
54849;SDS011;47660;51.334;12.396;2023-05-07T09:37:12;5.00;;;3.00;;
54849;SDS011;47660;51.334;12.396;2023-05-07T09:39:43;6.07;;;3.85;;
54849;SDS011;47660;51.334;12.396;2023-05-07T09:42:12;6.93;;;3.58;;
54849;SDS011;47660;51.334;12.396;2023-05-07T09:44:40;5.03;;;3.13;;
54849;SDS011;47660;51.334;12.396;2023-05-07T09:47:06;4.75;;;3.15;;
54849;SDS011;47660;51.334;12.396;2023-05-07T09:49:42;4.55;;;2.83;;
54849;SDS011;47660;51.334;12.396;2023-05-07T09:52:14;4.80;;;3.40;;
54849;SDS011;47660;51.334;12.396;2023-05-07T09:54:49;5.60;;;3.67;;
54849;SDS011;47660;51.334;12.396;2023-05-07T09:57:15;5.00;;;3.60;;
54849;SDS011;47660;51.334;12.396;2023-05-07T09:59:44;5.43;;;3.38;;
54849;SDS011;47660;51.334;12.396;2023-05-07T10:02:11;7.55;;;3.47;;
54849;SDS011;47660;51.334;12.396;2023-05-07T10:04:39;5.38;;;3.22;;
54849;SDS011;47660;51.334;12.396;2023-05-07T10:07:05;5.15;;;3.50;;
54849;SDS011;47660;51.334;12.396;2023-05-07T10:09:34;5.70;;;3.63;;
54849;SDS011;47660;51.334;12.396;2023-05-07T10:12:03;3.83;;;2.42;;
54849;SDS011;47660;51.334;12.396;2023-05-07T10:14:30;4.20;;;3.00;;
54849;SDS011;47660;51.334;12.396;2023-05-07T10:16:56;4.00;;;2.80;;
54849;SDS011;47660;51.334;12.396;2023-05-07T10:19:22;3.45;;;2.63;;
54849;SDS011;47660;51.334;12.396;2023-05-07T10:21:51;3.88;;;2.90;;
54849;SDS011;47660;51.334;12.396;2023-05-07T10:24:27;4.20;;;2.60;;
54849;SDS011;47660;51.334;12.396;2023-05-07T10:26:57;3.80;;;2.67;;
54849;SDS011;47660;51.334;12.396;2023-05-07T10:29:30;4.28;;;2.88;;
54849;SDS011;47660;51.334;12.396;2023-05-07T10:35:03;6.68;;;2.40;;
54849;SDS011;47660;51.334;12.396;2023-05-07T10:37:35;3.63;;;2.97;;
54849;SDS011;47660;51.334;12.396;2023-05-07T10:40:01;3.60;;;2.38;;
54849;SDS011;47660;51.334;12.396;2023-05-07T10:42:30;3.85;;;2.63;;
54849;SDS011;47660;51.334;12.396;2023-05-07T10:44:56;5.63;;;2.63;;
54849;SDS011;47660;51.334;12.396;2023-05-07T10:47:24;3.22;;;2.33;;
54849;SDS011;47660;51.334;12.396;2023-05-07T10:54:44;4.95;;;2.40;;
54849;SDS011;47660;51.334;12.396;2023-05-07T11:00:00;4.63;;;3.15;;
54849;SDS011;47660;51.334;12.396;2023-05-07T11:05:26;4.47;;;3.30;;
54849;SDS011;47660;51.334;12.396;2023-05-07T11:13:16;5.72;;;4.00;;
54849;SDS011;47660;51.334;12.396;2023-05-07T11:15:46;6.28;;;3.70;;
54849;SDS011;47660;51.334;12.396;2023-05-07T11:18:16;7.47;;;3.28;;
54849;SDS011;47660;51.334;12.396;2023-05-07T11:20:53;5.38;;;3.05;;
54849;SDS011;47660;51.334;12.396;2023-05-07T11:26:05;4.35;;;2.95;;
54849;SDS011;47660;51.334;12.396;2023-05-07T11:28:37;5.80;;;3.15;;
54849;SDS011;47660;51.334;12.396;2023-05-07T11:31:06;5.40;;;3.25;;
54849;SDS011;47660;51.334;12.396;2023-05-07T11:33:33;5.38;;;3.58;;
54849;SDS011;47660;51.334;12.396;2023-05-07T11:36:03;6.25;;;4.10;;
54849;SDS011;47660;51.334;12.396;2023-05-07T11:38:36;7.10;;;3.67;;
54849;SDS011;47660;51.334;12.396;2023-05-07T11:41:06;3.35;;;2.42;;
54849;SDS011;47660;51.334;12.396;2023-05-07T11:43:33;3.75;;;2.90;;
54849;SDS011;47660;51.334;12.396;2023-05-07T11:48:35;5.65;;;3.42;;
54849;SDS011;47660;51.334;12.396;2023-05-07T11:51:02;4.22;;;3.33;;
54849;SDS011;47660;51.334;12.396;2023-05-07T11:53:39;5.53;;;3.45;;
54849;SDS011;47660;51.334;12.396;2023-05-07T11:56:13;5.03;;;3.45;;
54849;SDS011;47660;51.334;12.396;2023-05-07T11:58:40;5.20;;;3.17;;
54849;SDS011;47660;51.334;12.396;2023-05-07T12:01:13;8.80;;;4.10;;
54849;SDS011;47660;51.334;12.396;2023-05-07T12:03:45;5.40;;;3.30;;
54849;SDS011;47660;51.334;12.396;2023-05-07T12:06:12;7.88;;;3.60;;
54849;SDS011;47660;51.334;12.396;2023-05-07T12:08:40;6.32;;;3.30;;
54849;SDS011;47660;51.334;12.396;2023-05-07T12:11:07;6.22;;;3.13;;
54849;SDS011;47660;51.334;12.396;2023-05-07T12:13:34;5.50;;;3.40;;
54849;SDS011;47660;51.334;12.396;2023-05-07T12:16:00;5.18;;;3.28;;
54849;SDS011;47660;51.334;12.396;2023-05-07T12:18:31;4.95;;;3.08;;
54849;SDS011;47660;51.334;12.396;2023-05-07T12:20:59;5.68;;;3.55;;
54849;SDS011;47660;51.334;12.396;2023-05-07T12:23:25;4.60;;;2.75;;
54849;SDS011;47660;51.334;12.396;2023-05-07T12:25:51;4.95;;;3.05;;
54849;SDS011;47660;51.334;12.396;2023-05-07T12:28:19;6.18;;;3.13;;
54849;SDS011;47660;51.334;12.396;2023-05-07T12:30:47;4.82;;;3.13;;
54849;SDS011;47660;51.334;12.396;2023-05-07T12:33:18;3.67;;;2.75;;
54849;SDS011;47660;51.334;12.396;2023-05-07T12:35:48;4.47;;;2.78;;
54849;SDS011;47660;51.334;12.396;2023-05-07T12:38:15;5.05;;;3.03;;
54849;SDS011;47660;51.334;12.396;2023-05-07T12:40:43;4.53;;;3.28;;
54849;SDS011;47660;51.334;12.396;2023-05-07T12:43:23;4.78;;;3.13;;
54849;SDS011;47660;51.334;12.396;2023-05-07T12:45:51;6.25;;;3.35;;
54849;SDS011;47660;51.334;12.396;2023-05-07T12:48:21;4.63;;;3.38;;
54849;SDS011;47660;51.334;12.396;2023-05-07T12:50:50;3.35;;;2.63;;
54849;SDS011;47660;51.334;12.396;2023-05-07T12:53:16;4.40;;;2.65;;
54849;SDS011;47660;51.334;12.396;2023-05-07T12:58:48;5.82;;;2.80;;
54849;SDS011;47660;51.334;12.396;2023-05-07T13:01:06;3.17;;;2.20;;
54849;SDS011;47660;51.334;12.396;2023-05-07T13:03:47;3.90;;;2.40;;
54849;SDS011;47660;51.334;12.396;2023-05-07T13:06:13;4.25;;;2.70;;
54849;SDS011;47660;51.334;12.396;2023-05-07T13:08:40;5.25;;;2.85;;
54849;SDS011;47660;51.334;12.396;2023-05-07T13:11:08;5.32;;;2.60;;
54849;SDS011;47660;51.334;12.396;2023-05-07T13:13:36;4.32;;;2.60;;
54849;SDS011;47660;51.334;12.396;2023-05-07T13:16:05;4.32;;;2.85;;
54849;SDS011;47660;51.334;12.396;2023-05-07T13:18:32;4.63;;;3.05;;
54849;SDS011;47660;51.334;12.396;2023-05-07T13:20:59;3.05;;;2.45;;
54849;SDS011;47660;51.334;12.396;2023-05-07T13:23:25;3.95;;;2.17;;
54849;SDS011;47660;51.334;12.396;2023-05-07T13:25:52;6.63;;;2.70;;
54849;SDS011;47660;51.334;12.396;2023-05-07T13:28:21;3.92;;;2.92;;
54849;SDS011;47660;51.334;12.396;2023-05-07T13:30:52;3.92;;;2.78;;
54849;SDS011;47660;51.334;12.396;2023-05-07T13:33:19;6.68;;;2.75;;
54849;SDS011;47660;51.334;12.396;2023-05-07T13:35:49;4.47;;;2.45;;
54849;SDS011;47660;51.334;12.396;2023-05-07T13:38:17;4.30;;;2.40;;
54849;SDS011;47660;51.334;12.396;2023-05-07T13:40:43;4.68;;;2.88;;
54849;SDS011;47660;51.334;12.396;2023-05-07T13:43:08;7.63;;;2.85;;
54849;SDS011;47660;51.334;12.396;2023-05-07T13:45:34;5.28;;;2.72;;
54849;SDS011;47660;51.334;12.396;2023-05-07T13:47:59;3.40;;;2.55;;
54849;SDS011;47660;51.334;12.396;2023-05-07T13:50:25;5.82;;;2.70;;
54849;SDS011;47660;51.334;12.396;2023-05-07T13:52:54;3.15;;;2.20;;
54849;SDS011;47660;51.334;12.396;2023-05-07T13:55:21;3.08;;;2.30;;
54849;SDS011;47660;51.334;12.396;2023-05-07T13:57:51;5.70;;;2.42;;
54849;SDS011;47660;51.334;12.396;2023-05-07T14:00:26;5.70;;;2.67;;
54849;SDS011;47660;51.334;12.396;2023-05-07T14:03:10;3.72;;;2.25;;
54849;SDS011;47660;51.334;12.396;2023-05-07T14:05:35;7.57;;;2.22;;
54849;SDS011;47660;51.334;12.396;2023-05-07T14:08:03;3.55;;;1.88;;
54849;SDS011;47660;51.334;12.396;2023-05-07T14:10:30;4.38;;;2.30;;
54849;SDS011;47660;51.334;12.396;2023-05-07T14:12:56;3.35;;;1.90;;
54849;SDS011;47660;51.334;12.396;2023-05-07T14:15:22;3.13;;;2.00;;
54849;SDS011;47660;51.334;12.396;2023-05-07T14:17:50;2.25;;;1.58;;
54849;SDS011;47660;51.334;12.396;2023-05-07T14:20:15;2.47;;;1.85;;
54849;SDS011;47660;51.334;12.396;2023-05-07T14:22:40;4.40;;;2.08;;
54849;SDS011;47660;51.334;12.396;2023-05-07T14:25:06;2.35;;;1.88;;
54849;SDS011;47660;51.334;12.396;2023-05-07T14:27:32;2.10;;;1.88;;
54849;SDS011;47660;51.334;12.396;2023-05-07T14:29:58;3.80;;;1.92;;
54849;SDS011;47660;51.334;12.396;2023-05-07T14:32:23;2.42;;;1.88;;
54849;SDS011;47660;51.334;12.396;2023-05-07T14:34:49;2.05;;;1.65;;
54849;SDS011;47660;51.334;12.396;2023-05-07T14:37:15;3.17;;;2.15;;
54849;SDS011;47660;51.334;12.396;2023-05-07T14:39:43;1.73;;;1.63;;
54849;SDS011;47660;51.334;12.396;2023-05-07T14:42:10;3.72;;;2.00;;
54849;SDS011;47660;51.334;12.396;2023-05-07T14:44:37;2.45;;;1.80;;
54849;SDS011;47660;51.334;12.396;2023-05-07T14:47:05;2.10;;;1.65;;
54849;SDS011;47660;51.334;12.396;2023-05-07T14:49:31;2.67;;;1.83;;
54849;SDS011;47660;51.334;12.396;2023-05-07T14:51:57;3.05;;;2.08;;
54849;SDS011;47660;51.334;12.396;2023-05-07T14:54:24;2.97;;;1.80;;
54849;SDS011;47660;51.334;12.396;2023-05-07T14:56:50;2.95;;;1.70;;
54849;SDS011;47660;51.334;12.396;2023-05-07T14:59:15;2.42;;;1.70;;